Elizabethtown, Pennsylvania
Current Conditions -  °F | °C
As of 1:56 PM on Thursday 27 Nov 2014 (Local Time) from KMDT Reporting Station
Overcast Overcast  
Wind Chill: 30°   Ceiling: 3400
Heat Index: 36°   Visibility: 10mi
Dew Point: 27°   Wind: 7mph
Humidity: 70%   Direction: 310°NW
Pressure: 30.04"   Gusts: NA
Location:  40.15°N, 76.61°W
Report Text: KMDT 271856Z 31006KT 10SM FEW026 BKN034 OVC060 02/M03 A3004 RMK AO2 SLP175 T00221028
Loading
Personal Weather Stations






























Interactive Weather Map New forecast layout! Learn more

10-Day Weather Forecast

Advertisements
Track Severe Weather on mobile